createdAt,value
2022-11-28T00:01:29.243Z,9.63
2022-11-28T00:03:55.952Z,9.66
2022-11-28T00:06:22.837Z,9.67
2022-11-28T00:08:49.690Z,9.66
2022-11-28T00:11:17.115Z,9.55
2022-11-28T00:13:44.555Z,9.60
2022-11-28T00:16:15.803Z,9.55
2022-11-28T00:18:42.449Z,9.58
2022-11-28T00:21:11.757Z,9.48
2022-11-28T00:23:39.116Z,9.67
2022-11-28T00:26:10.811Z,9.66
2022-11-28T00:28:37.436Z,9.66
2022-11-28T00:31:04.782Z,9.63
2022-11-28T00:33:34.704Z,9.63
2022-11-28T00:36:02.882Z,9.73
2022-11-28T00:38:30.360Z,9.67
2022-11-28T00:41:24.120Z,9.58
2022-11-28T00:43:51.693Z,9.61
2022-11-28T00:46:19.504Z,9.66
2022-11-28T00:48:46.175Z,9.65
2022-11-28T00:51:18.189Z,9.70
2022-11-28T00:53:47.838Z,9.66
2022-11-28T00:56:16.664Z,9.67
2022-11-28T00:58:44.435Z,9.66
2022-11-28T01:01:14.808Z,9.63
2022-11-28T01:03:41.803Z,9.61
2022-11-28T01:06:11.009Z,9.59
2022-11-28T01:08:37.913Z,9.55
2022-11-28T01:11:10.972Z,9.47
2022-11-28T01:13:37.517Z,9.51
2022-11-28T01:16:04.202Z,9.50
2022-11-28T01:18:30.784Z,9.45
2022-11-28T01:20:57.852Z,9.22
2022-11-28T01:23:24.380Z,9.46
2022-11-28T01:25:50.950Z,9.06
2022-11-28T01:28:17.523Z,9.19
2022-11-28T01:30:44.146Z,9.27
2022-11-28T01:33:10.673Z,9.44
2022-11-28T01:35:37.201Z,9.48
2022-11-28T01:38:03.750Z,9.48
2022-11-28T01:40:30.288Z,9.49
2022-11-28T01:42:56.820Z,9.48
2022-11-28T01:45:33.633Z,9.50
2022-11-28T01:48:02.971Z,9.46
2022-11-28T01:50:32.993Z,9.49
2022-11-28T01:53:04.275Z,9.51
2022-11-28T01:55:35.393Z,9.52
2022-11-28T01:58:02.036Z,9.20
2022-11-28T02:00:28.559Z,9.10
2022-11-28T02:03:03.668Z,9.00
2022-11-28T02:05:30.194Z,9.18
2022-11-28T02:07:56.803Z,9.09
2022-11-28T02:10:26.836Z,9.37
2022-11-28T02:13:19.091Z,9.42
2022-11-28T02:16:10.521Z,9.45
2022-11-28T02:18:50.697Z,9.19
2022-11-28T02:21:43.235Z,9.41
2022-11-28T02:24:31.462Z,9.38
2022-11-28T02:27:25.991Z,9.42
2022-11-28T02:30:01.544Z,9.42
2022-11-28T02:32:34.712Z,9.54
2022-11-28T02:35:04.287Z,9.60
2022-11-28T02:37:54.228Z,9.53
2022-11-28T02:41:07.348Z,9.70
2022-11-28T02:44:04.449Z,9.64
2022-11-28T02:46:32.257Z,9.71
2022-11-28T02:49:04.360Z,9.45
2022-11-28T02:52:15.095Z,9.57
2022-11-28T02:54:42.956Z,9.57
2022-11-28T02:57:09.904Z,9.57
2022-11-28T02:59:39.186Z,9.49
2022-11-28T03:02:15.260Z,9.10
2022-11-28T03:05:07.630Z,9.44
2022-11-28T03:07:58.231Z,9.49
2022-11-28T03:10:30.553Z,9.38
2022-11-28T03:13:49.479Z,9.42
2022-11-28T03:16:31.054Z,9.58
2022-11-28T03:19:33.207Z,9.51
2022-11-28T03:22:38.949Z,9.57
2022-11-28T03:25:20.580Z,9.53
2022-11-28T03:28:02.130Z,9.47
2022-11-28T03:30:36.592Z,9.56
2022-11-28T03:33:05.900Z,9.56
2022-11-28T03:35:43.173Z,9.46
2022-11-28T03:38:17.710Z,9.53
2022-11-28T03:40:49.113Z,9.57
2022-11-28T03:43:20.384Z,9.50
2022-11-28T03:45:54.853Z,9.51
2022-11-28T03:48:39.192Z,9.46
2022-11-28T03:51:12.159Z,9.22
2022-11-28T03:53:50.211Z,9.27
2022-11-28T03:56:22.493Z,9.37
2022-11-28T03:58:59.675Z,9.47
2022-11-28T04:01:29.719Z,9.28
2022-11-28T04:04:17.941Z,9.34
2022-11-28T04:06:58.232Z,9.53
2022-11-28T04:09:43.679Z,9.32
2022-11-28T04:12:21.558Z,9.12
2022-11-28T04:14:53.841Z,9.33
2022-11-28T04:17:32.561Z,9.36
2022-11-28T04:20:18.656Z,9.13
2022-11-28T04:22:50.893Z,9.37
2022-11-28T04:25:22.040Z,9.50
2022-11-28T04:28:02.827Z,9.43
2022-11-28T04:30:29.549Z,9.47
2022-11-28T04:33:01.442Z,9.16
2022-11-28T04:35:36.740Z,9.37
2022-11-28T04:38:07.492Z,9.46
2022-11-28T04:40:41.393Z,9.50
2022-11-28T04:43:18.356Z,9.47
2022-11-28T04:45:51.243Z,9.50
2022-11-28T04:48:18.479Z,9.33
2022-11-28T04:51:06.460Z,9.45
2022-11-28T04:53:44.430Z,9.60
2022-11-28T04:56:21.619Z,9.61
2022-11-28T04:58:50.615Z,9.58
2022-11-28T05:01:38.112Z,9.51
2022-11-28T05:04:04.839Z,9.02
2022-11-28T05:06:34.414Z,9.26
2022-11-28T05:09:00.959Z,9.15
2022-11-28T05:11:28.171Z,9.22
2022-11-28T05:13:55.328Z,9.24
2022-11-28T05:16:22.714Z,9.20
2022-11-28T05:18:50.301Z,9.12
2022-11-28T05:21:16.899Z,8.93
2022-11-28T05:23:44.611Z,8.78
2022-11-28T05:26:17.507Z,9.12
2022-11-28T05:28:49.650Z,9.30
2022-11-28T05:31:17.473Z,9.08
2022-11-28T05:33:44.081Z,9.30
2022-11-28T05:36:13.312Z,9.42
2022-11-28T05:38:40.374Z,9.45
2022-11-28T05:41:07.161Z,9.51
2022-11-28T05:43:34.267Z,9.38
2022-11-28T05:46:00.979Z,9.47
2022-11-28T05:48:27.610Z,9.44
2022-11-28T05:50:54.148Z,9.44
2022-11-28T05:53:20.673Z,9.51
2022-11-28T05:55:47.221Z,9.26
2022-11-28T05:58:13.785Z,9.41
2022-11-28T06:00:40.300Z,9.60
2022-11-28T06:03:06.944Z,9.47
2022-11-28T06:05:43.279Z,9.57
2022-11-28T06:08:14.070Z,9.68
2022-11-28T06:10:40.967Z,9.54
2022-11-28T06:13:07.845Z,9.65
2022-11-28T06:15:37.976Z,9.34
2022-11-28T06:18:05.846Z,9.50
2022-11-28T06:20:34.793Z,9.56
2022-11-28T06:23:01.456Z,9.55
2022-11-28T06:25:28.128Z,9.67
2022-11-28T06:27:54.613Z,9.73
2022-11-28T06:30:21.148Z,9.71
2022-11-28T06:32:47.773Z,9.74
2022-11-28T06:35:14.307Z,9.79
2022-11-28T06:37:40.867Z,9.89
2022-11-28T06:40:07.850Z,9.87
2022-11-28T06:42:37.844Z,9.72
2022-11-28T06:45:05.363Z,9.54
2022-11-28T06:47:32.124Z,9.44
2022-11-28T06:49:58.617Z,9.48
2022-11-28T06:52:25.203Z,9.76
2022-11-28T06:54:51.722Z,9.75
2022-11-28T06:57:18.252Z,9.76
2022-11-28T06:59:45.065Z,9.72
2022-11-28T07:02:11.816Z,9.64
2022-11-28T07:04:38.428Z,9.81
2022-11-28T07:07:04.922Z,9.80
2022-11-28T07:09:31.499Z,9.88
2022-11-28T07:11:58.018Z,9.92
2022-11-28T07:14:24.615Z,9.95
2022-11-28T07:16:51.230Z,9.92
2022-11-28T07:19:23.091Z,10.08
2022-11-28T07:21:50.190Z,10.07
2022-11-28T07:24:19.790Z,10.11
2022-11-28T07:26:46.804Z,9.94
2022-11-28T07:29:18.974Z,9.85
2022-11-28T07:31:45.573Z,10.00
2022-11-28T07:34:12.404Z,10.06
2022-11-28T07:36:38.916Z,10.15
2022-11-28T07:39:08.608Z,10.16
2022-11-28T07:41:35.433Z,10.25
2022-11-28T07:44:03.721Z,10.22
2022-11-28T07:46:31.553Z,10.32
2022-11-28T07:48:58.231Z,10.34
2022-11-28T07:51:27.805Z,10.52
2022-11-28T07:53:54.385Z,10.49
2022-11-28T07:56:23.550Z,10.47
2022-11-28T07:58:50.174Z,10.58
2022-11-28T08:01:18.189Z,10.61
2022-11-28T08:03:45.998Z,10.65
2022-11-28T08:06:14.146Z,10.76
2022-11-28T08:08:40.744Z,10.70
2022-11-28T08:11:09.395Z,10.61
2022-11-28T08:13:37.393Z,10.59
2022-11-28T08:16:09.704Z,10.59
2022-11-28T08:18:36.735Z,10.41
2022-11-28T08:21:15.098Z,10.19
2022-11-28T08:23:42.417Z,10.34
2022-11-28T08:26:11.357Z,10.50
2022-11-28T08:28:37.927Z,10.59
2022-11-28T08:31:21.532Z,10.69
2022-11-28T08:33:49.469Z,10.86
2022-11-28T08:36:17.540Z,10.89
2022-11-28T08:39:02.932Z,10.95
2022-11-28T08:41:32.722Z,10.84
2022-11-28T08:43:59.306Z,10.81
2022-11-28T08:46:25.854Z,11.04
2022-11-28T08:48:52.695Z,11.22
2022-11-28T08:51:21.115Z,11.31
2022-11-28T08:53:49.472Z,11.42
2022-11-28T08:56:16.599Z,11.52
2022-11-28T08:58:43.320Z,11.52
2022-11-28T09:01:18.629Z,11.51
2022-11-28T09:03:45.540Z,11.51
2022-11-28T09:06:12.268Z,11.58
2022-11-28T09:08:39.014Z,11.53
2022-11-28T09:11:09.689Z,11.26
2022-11-28T09:13:37.346Z,11.69
2022-11-28T09:16:04.632Z,11.82
2022-11-28T09:18:31.213Z,11.80
2022-11-28T09:20:59.523Z,11.89
2022-11-28T09:23:26.602Z,11.96
2022-11-28T09:25:53.096Z,11.97
2022-11-28T09:28:19.621Z,12.09
2022-11-28T09:30:46.230Z,12.16
2022-11-28T09:33:13.367Z,12.28
2022-11-28T09:35:40.494Z,12.30
2022-11-28T09:38:07.258Z,12.03
2022-11-28T09:40:40.220Z,12.20
2022-11-28T09:43:15.500Z,12.31
2022-11-28T09:45:44.636Z,12.17
2022-11-28T09:48:28.620Z,12.34
2022-11-28T09:51:00.635Z,12.37
2022-11-28T09:53:36.481Z,12.51
2022-11-28T09:56:14.423Z,12.67
2022-11-28T09:59:00.594Z,12.75
2022-11-28T10:01:32.458Z,12.83
2022-11-28T10:04:09.413Z,12.89
2022-11-28T10:07:00.276Z,13.01
2022-11-28T10:09:48.356Z,12.98
2022-11-28T10:12:36.545Z,12.77
2022-11-28T10:15:25.080Z,12.92
2022-11-28T10:18:06.944Z,12.83
2022-11-28T10:20:41.470Z,12.70
2022-11-28T10:23:35.079Z,12.44
2022-11-28T10:26:09.401Z,12.73
2022-11-28T10:28:38.467Z,12.35
2022-11-28T10:31:15.880Z,12.82
2022-11-28T10:33:52.003Z,12.95
2022-11-28T10:36:39.216Z,12.95
2022-11-28T10:39:11.845Z,13.18
2022-11-28T10:42:14.056Z,13.18
2022-11-28T10:44:59.261Z,13.11
2022-11-28T10:47:41.067Z,12.91
2022-11-28T10:50:19.887Z,13.24
2022-11-28T10:53:13.425Z,13.19
2022-11-28T10:55:48.645Z,13.43
2022-11-28T10:58:32.605Z,13.61
2022-11-28T11:01:00.254Z,13.70
2022-11-28T11:03:32.678Z,13.83
2022-11-28T11:06:00.216Z,13.95
2022-11-28T11:08:29.410Z,14.09
2022-11-28T11:11:07.206Z,14.23
2022-11-28T11:13:53.478Z,14.30
2022-11-28T11:16:20.014Z,14.41
2022-11-28T11:18:47.101Z,14.49
2022-11-28T11:21:18.815Z,14.60
2022-11-28T11:23:47.292Z,14.61
2022-11-28T11:26:24.929Z,14.64
2022-11-28T11:28:52.267Z,14.59
2022-11-28T11:31:25.922Z,14.26
2022-11-28T11:34:06.704Z,14.42
2022-11-28T11:36:37.728Z,14.51
2022-11-28T11:39:11.875Z,14.66
2022-11-28T11:41:40.919Z,14.77
2022-11-28T11:44:13.655Z,14.88
2022-11-28T11:46:54.617Z,15.08
2022-11-28T11:49:28.378Z,15.13
2022-11-28T11:51:59.998Z,15.22
2022-11-28T11:54:27.016Z,15.28
2022-11-28T11:57:11.188Z,15.32
2022-11-28T11:59:48.022Z,15.36
2022-11-28T12:02:33.328Z,15.41
2022-11-28T12:05:13.309Z,15.41
2022-11-28T12:07:50.784Z,15.42
2022-11-28T12:10:21.175Z,15.48
2022-11-28T12:12:47.770Z,15.42
2022-11-28T12:15:21.347Z,15.50
2022-11-28T12:18:09.786Z,15.54
2022-11-28T12:20:51.631Z,15.63
2022-11-28T12:23:21.100Z,15.72
2022-11-28T12:25:57.281Z,15.80
2022-11-28T12:28:55.643Z,15.71
2022-11-28T12:31:52.714Z,15.49
2022-11-28T12:34:37.938Z,15.66
2022-11-28T12:37:19.593Z,15.76
2022-11-28T12:40:13.604Z,15.75
2022-11-28T12:43:05.914Z,15.68
2022-11-28T12:45:38.488Z,15.40
2022-11-28T12:48:23.579Z,15.54
2022-11-28T12:51:02.786Z,15.65
2022-11-28T12:53:45.434Z,15.76
2022-11-28T12:56:37.374Z,15.67
2022-11-28T12:59:34.741Z,15.65
2022-11-28T13:02:24.486Z,15.66
2022-11-28T13:05:05.345Z,15.75
2022-11-28T13:07:55.580Z,15.71
2022-11-28T13:10:43.945Z,15.73
2022-11-28T13:13:18.340Z,15.51
2022-11-28T13:16:03.629Z,15.49
2022-11-28T13:18:44.182Z,15.53
2022-11-28T13:21:31.905Z,15.62
2022-11-28T13:24:09.356Z,15.57
2022-11-28T13:27:09.396Z,15.62
2022-11-28T13:29:59.721Z,15.64
2022-11-28T13:32:29.176Z,15.72
2022-11-28T13:34:56.426Z,15.73
2022-11-28T13:40:26.625Z,15.72
2022-11-28T13:43:12.488Z,15.70
2022-11-28T13:45:43.475Z,15.65
2022-11-28T13:49:13.075Z,15.61
2022-11-28T13:51:31.547Z,15.60
2022-11-28T13:54:17.146Z,15.56
2022-11-28T13:56:45.848Z,15.53
2022-11-28T13:59:21.596Z,15.60
2022-11-28T14:01:56.370Z,15.45
2022-11-28T14:04:23.829Z,15.43
2022-11-28T14:07:02.299Z,15.39
2022-11-28T14:09:44.684Z,15.45
2022-11-28T14:12:26.902Z,15.37
2022-11-28T14:15:17.384Z,15.31
2022-11-28T14:18:24.751Z,15.32
2022-11-28T14:21:00.016Z,15.27
2022-11-28T14:23:35.057Z,15.22
2022-11-28T14:26:02.154Z,15.16
2022-11-28T14:28:36.684Z,15.12
2022-11-28T14:31:09.735Z,15.08
2022-11-28T14:33:38.007Z,15.08
2022-11-28T14:36:28.771Z,15.04
2022-11-28T14:39:19.421Z,15.07
2022-11-28T14:42:04.595Z,15.02
2022-11-28T14:44:52.800Z,14.93
2022-11-28T14:47:47.721Z,14.91
2022-11-28T14:50:14.621Z,14.90
2022-11-28T14:52:43.296Z,14.90
2022-11-28T14:55:12.245Z,14.86
2022-11-28T14:57:54.502Z,14.84
2022-11-28T15:00:35.273Z,14.84
2022-11-28T15:03:49.764Z,14.79
2022-11-28T15:06:25.289Z,14.74
2022-11-28T15:09:07.160Z,14.68
2022-11-28T15:11:43.621Z,14.69
2022-11-28T15:14:22.505Z,14.68
2022-11-28T15:16:55.491Z,14.64
2022-11-28T15:19:46.250Z,14.63
2022-11-28T15:22:38.508Z,14.60
2022-11-28T15:25:21.536Z,14.54
2022-11-28T15:27:48.486Z,14.54
2022-11-28T15:30:20.263Z,14.50
2022-11-28T15:32:47.842Z,14.52
2022-11-28T15:35:17.617Z,14.49
2022-11-28T15:37:50.675Z,14.56
2022-11-28T15:40:26.394Z,14.47
2022-11-28T15:42:53.314Z,14.44
2022-11-28T15:45:27.124Z,14.40
2022-11-28T15:47:55.045Z,14.50
2022-11-28T15:50:25.100Z,14.41
2022-11-28T15:53:02.697Z,14.38
2022-11-28T15:55:34.003Z,14.40
2022-11-28T15:58:20.095Z,14.37
2022-11-28T16:01:13.449Z,14.30
2022-11-28T16:04:10.356Z,14.17
2022-11-28T16:06:41.245Z,14.27
2022-11-28T16:09:29.885Z,14.28
2022-11-28T16:11:56.621Z,14.25
2022-11-28T16:14:36.247Z,14.23
2022-11-28T16:17:12.529Z,14.21
2022-11-28T16:19:39.223Z,14.15
2022-11-28T16:22:16.895Z,14.28
2022-11-28T16:24:55.350Z,14.20
2022-11-28T16:27:38.489Z,14.12
2022-11-28T16:30:38.183Z,14.03
2022-11-28T16:33:34.681Z,14.14
2022-11-28T16:36:31.059Z,14.06
2022-11-28T16:39:09.203Z,14.08
2022-11-28T16:41:36.772Z,14.12
2022-11-28T16:44:12.133Z,14.06
2022-11-28T16:46:41.607Z,14.08
2022-11-28T16:49:43.935Z,13.88
2022-11-28T16:52:22.687Z,14.04
2022-11-28T16:54:50.890Z,14.02
2022-11-28T16:57:19.979Z,13.98
2022-11-28T16:59:48.181Z,14.01
2022-11-28T17:02:19.079Z,13.87
2022-11-28T17:04:46.977Z,13.76
2022-11-28T17:07:16.603Z,13.70
2022-11-28T17:09:44.558Z,13.79
2022-11-28T17:12:38.778Z,13.83
2022-11-28T17:15:08.480Z,13.93
2022-11-28T17:17:36.120Z,13.94
2022-11-28T17:20:03.536Z,13.98
2022-11-28T17:22:50.969Z,13.95
2022-11-28T17:25:20.400Z,13.92
2022-11-28T17:27:48.132Z,13.88
2022-11-28T17:30:16.916Z,13.78
2022-11-28T17:32:43.636Z,13.65
2022-11-28T17:35:18.149Z,13.69
2022-11-28T17:37:44.679Z,13.64
2022-11-28T17:40:30.065Z,13.64
2022-11-28T17:42:56.574Z,13.69
2022-11-28T17:45:23.287Z,13.71
2022-11-28T17:47:49.906Z,13.70
2022-11-28T17:50:17.641Z,13.65
2022-11-28T17:52:44.396Z,13.69
2022-11-28T17:55:11.313Z,13.78
2022-11-28T17:57:37.826Z,13.83
2022-11-28T18:00:06.825Z,13.90
2022-11-28T18:02:40.647Z,13.85
2022-11-28T18:05:08.696Z,13.76
2022-11-28T18:07:35.410Z,13.66
2022-11-28T18:10:02.003Z,13.60
2022-11-28T18:12:29.072Z,13.53
2022-11-28T18:14:55.643Z,13.60
2022-11-28T18:17:22.203Z,13.68
2022-11-28T18:19:52.022Z,13.72
2022-11-28T18:22:21.110Z,13.77
2022-11-28T18:24:47.731Z,13.72
2022-11-28T18:27:14.314Z,13.72
2022-11-28T18:29:41.101Z,13.66
2022-11-28T18:32:07.999Z,13.57
2022-11-28T18:34:34.566Z,13.55
2022-11-28T18:37:01.185Z,13.65
2022-11-28T18:39:31.240Z,13.75
2022-11-28T18:41:59.885Z,13.52
2022-11-28T18:44:27.929Z,13.73
2022-11-28T18:46:54.524Z,13.50
2022-11-28T18:49:21.355Z,13.70
2022-11-28T18:51:48.447Z,13.65
2022-11-28T18:54:20.564Z,13.66
2022-11-28T18:56:48.090Z,13.69
2022-11-28T18:59:14.916Z,13.61
2022-11-28T19:01:41.509Z,13.52
2022-11-28T19:04:12.064Z,13.58
2022-11-28T19:06:40.187Z,13.55
2022-11-28T19:09:10.337Z,13.18
2022-11-28T19:11:37.112Z,13.55
2022-11-28T19:14:04.195Z,13.46
2022-11-28T19:16:33.124Z,13.31
2022-11-28T19:19:01.819Z,13.44
2022-11-28T19:21:32.684Z,13.38
2022-11-28T19:24:00.434Z,13.40
2022-11-28T19:26:29.827Z,13.51
2022-11-28T19:28:57.594Z,13.55
2022-11-28T19:31:27.170Z,13.42
2022-11-28T19:34:02.405Z,13.36
2022-11-28T19:36:37.629Z,13.52
2022-11-28T19:39:05.015Z,13.45
2022-11-28T19:41:32.374Z,13.46
2022-11-28T19:43:59.371Z,13.45
2022-11-28T19:46:30.585Z,13.44
2022-11-28T19:49:02.728Z,13.47
2022-11-28T19:51:29.244Z,13.44
2022-11-28T19:54:01.380Z,13.39
2022-11-28T19:56:30.040Z,13.50
2022-11-28T19:58:56.870Z,13.49
2022-11-28T20:01:24.632Z,13.46
2022-11-28T20:03:53.758Z,13.51
2022-11-28T20:06:24.077Z,13.53
2022-11-28T20:08:52.636Z,13.50
2022-11-28T20:11:24.331Z,13.37
2022-11-28T20:13:56.864Z,13.29
2022-11-28T20:16:23.655Z,13.20
2022-11-28T20:18:50.568Z,13.37
2022-11-28T20:21:18.949Z,13.41
2022-11-28T20:23:48.481Z,13.41
2022-11-28T20:26:16.645Z,13.39
2022-11-28T20:28:43.728Z,13.40
2022-11-28T20:31:22.107Z,13.42
2022-11-28T20:33:52.632Z,13.42
2022-11-28T20:36:22.072Z,13.38
2022-11-28T20:38:49.710Z,13.41
2022-11-28T20:41:18.141Z,13.36
2022-11-28T20:43:44.947Z,13.45
2022-11-28T20:46:15.135Z,13.25
2022-11-28T20:48:42.184Z,13.29
2022-11-28T20:51:15.650Z,13.35
2022-11-28T20:53:42.477Z,13.43
2022-11-28T20:56:12.804Z,13.48
2022-11-28T20:58:39.800Z,13.41
2022-11-28T21:01:07.093Z,13.37
2022-11-28T21:03:34.171Z,13.14
2022-11-28T21:06:01.368Z,13.38
2022-11-28T21:08:31.180Z,13.45
2022-11-28T21:10:57.760Z,13.37
2022-11-28T21:13:24.427Z,13.35
2022-11-28T21:15:51.959Z,13.35
2022-11-28T21:18:18.533Z,13.46
2022-11-28T21:20:46.477Z,13.39
2022-11-28T21:23:15.966Z,13.40
2022-11-28T21:25:44.006Z,13.41
2022-11-28T21:28:12.279Z,13.35
2022-11-28T21:30:41.449Z,13.38
2022-11-28T21:33:08.456Z,13.37
2022-11-28T21:35:35.415Z,13.34
2022-11-28T21:38:01.986Z,13.33
2022-11-28T21:40:28.524Z,13.28
2022-11-28T21:42:55.027Z,13.25
2022-11-28T21:45:23.748Z,13.29
2022-11-28T21:47:50.812Z,13.29
2022-11-28T21:50:17.740Z,13.26
2022-11-28T21:52:44.309Z,13.30
2022-11-28T21:55:10.902Z,13.33
2022-11-28T21:57:37.534Z,13.28
2022-11-28T22:00:04.732Z,13.25
2022-11-28T22:02:41.632Z,13.22
2022-11-28T22:05:08.282Z,13.24
2022-11-28T22:07:36.360Z,13.20
2022-11-28T22:10:04.737Z,13.21
2022-11-28T22:12:31.995Z,13.27
2022-11-28T22:14:59.140Z,13.19
2022-11-28T22:17:25.961Z,13.37
2022-11-28T22:19:52.747Z,13.21
2022-11-28T22:22:19.307Z,13.23
2022-11-28T22:24:46.084Z,13.21
2022-11-28T22:27:12.776Z,13.16
2022-11-28T22:29:39.331Z,13.13
2022-11-28T22:32:06.236Z,13.22
2022-11-28T22:34:40.222Z,13.23
2022-11-28T22:37:07.520Z,13.13
2022-11-28T22:39:34.212Z,13.16
2022-11-28T22:42:01.215Z,13.09
2022-11-28T22:44:28.389Z,13.13
2022-11-28T22:46:55.131Z,13.20
2022-11-28T22:49:22.477Z,13.07
2022-11-28T22:51:49.245Z,13.13
2022-11-28T22:54:16.133Z,13.14
2022-11-28T22:56:43.100Z,13.18
2022-11-28T22:59:14.772Z,13.30
2022-11-28T23:01:43.361Z,13.19
2022-11-28T23:04:10.192Z,13.20
2022-11-28T23:06:37.280Z,13.26
2022-11-28T23:09:06.819Z,13.29
2022-11-28T23:11:36.507Z,13.19
2022-11-28T23:14:04.886Z,13.20
2022-11-28T23:16:35.254Z,13.17
2022-11-28T23:19:04.478Z,13.19
2022-11-28T23:21:34.710Z,13.17
2022-11-28T23:24:01.611Z,13.15
2022-11-28T23:26:30.176Z,13.18
2022-11-28T23:29:00.426Z,13.19
2022-11-28T23:31:33.106Z,13.22
2022-11-28T23:34:00.972Z,13.19
2022-11-28T23:36:30.920Z,13.12
2022-11-28T23:39:01.209Z,13.13
2022-11-28T23:41:29.415Z,13.08
2022-11-28T23:43:56.916Z,13.13
2022-11-28T23:46:24.652Z,13.16
2022-11-28T23:48:51.243Z,13.12
2022-11-28T23:51:20.248Z,13.06
2022-11-28T23:53:47.146Z,13.14
2022-11-28T23:56:15.863Z,13.14
2022-11-28T23:58:42.716Z,13.14
